tititudorancea.com
Station Historical Data
Daily Summary for January 2, 2018 Units:  Metric    English   Both
« Previous Day
Next Day »
Daily Weekly Monthly Yearly Custom
  High: Low: Average:
Temperature: -17.8 °C 9.9 °C 15.3 °C
Dew Point: -17.8 °C 7.7 °C 9.6 °C
Humidity: Humidity % 42 % 71 %
Wind Speed: 0 km/h 0 km/h 9.8 km/h
Wind Gust: 0 km/h - -
Wind:- - SW
Pressure: 0 hPa 1006 hPa -
Precipitation: 0 mm    
Historical Graphs
 
 
Ararat weather Find more about Weather in Ararat, AU


 



 


Tabular Data for January 2, 2018
Time Temperature Dew Point Pressure Wind Wind Speed Wind Gust Humidity Rainfall Rate (Hourly)
-17.8 °C -17.8 °C 0 hPa Calm     Humidity % 0 mm
00:00 14.3 °C 11.4 °C 1008 hPa SSE 8 km/h 13 km/h 83 % 0 mm
00:01 14.3 °C 11.4 °C 1008 hPa North 8 km/h 11.1 km/h 83 % 0 mm
00:02 14.3 °C 11.4 °C 1008 hPa SSE 8.4 km/h 11.3 km/h 83 % 0 mm
00:07 14.3 °C 11.4 °C 1008 hPa SSE 9.2 km/h 11.3 km/h 83 % 0 mm
00:12 14.2 °C 11.2 °C 1008 hPa SSE 6.4 km/h 13 km/h 82 % 0 mm
00:15 14.2 °C 11.2 °C 1008 hPa SSE 8.2 km/h 14.8 km/h 82 % 0 mm
00:20 14.2 °C 11.2 °C 1008 hPa South 8.5 km/h 18.5 km/h 82 % 0 mm
00:24 14.2 °C 11.2 °C 1008 hPa South 6.4 km/h 16.7 km/h 82 % 0 mm
00:29 14.2 °C 11.1 °C 1008 hPa South 6.8 km/h 12.9 km/h 82 % 0 mm
00:30 14.2 °C 11.1 °C 1008 hPa South 7.9 km/h 13 km/h 82 % 0 mm
00:35 14.2 °C 11.1 °C 1007.7 hPa South 7.7 km/h 11.1 km/h 82 % 0 mm
00:39 14.2 °C 11.1 °C 1007.7 hPa South 10.1 km/h 14.8 km/h 82 % 0 mm
00:43 14.1 °C 11.3 °C 1007.7 hPa SSE 11.1 km/h 14.8 km/h 83 % 0 mm
00:44 14.1 °C 11.3 °C 1007.7 hPa SSE 5.5 km/h 13 km/h 83 % 0 mm
00:49 14.1 °C 11.3 °C 1007.7 hPa SSE 5.8 km/h 9.3 km/h 83 % 0 mm
00:51 14.1 °C 11.2 °C 1007.7 hPa SSE 8 km/h 13 km/h 83 % 0 mm
00:52 14.1 °C 11.2 °C 1007.7 hPa North 6.9 km/h 11.1 km/h 83 % 0 mm
00:57 14.1 °C 11.4 °C 1007.7 hPa SSE 6.9 km/h 11.1 km/h 84 % 0 mm
01:01 14.1 °C 11.4 °C 1007.7 hPa SSE 6.1 km/h 13 km/h 84 % 0 mm
01:06 14.1 °C 11.4 °C 1007.7 hPa North 5 km/h 11.1 km/h 84 % 0 mm
01:09 14.1 °C 11.4 °C 1007.7 hPa SSE 6.1 km/h 9.3 km/h 84 % 0 mm
01:14 14 °C 11.2 °C 1007.7 hPa North 9 km/h 14.8 km/h 83 % 0 mm
01:15 14 °C 11.2 °C 1007.7 hPa South 8.9 km/h 16.7 km/h 83 % 0 mm
01:17 14 °C 11.2 °C 1007.7 hPa South 6.3 km/h 9.3 km/h 83 % 0 mm
01:20 13.9 °C 11.1 °C 1007.7 hPa South 6.6 km/h 11.1 km/h 83 % 0 mm
01:25 13.9 °C 11.1 °C 1007.7 hPa South 6.6 km/h 6.6 km/h 83 % 0 mm
01:26 13.9 °C 11.1 °C 1007.7 hPa South 7.4 km/h 13 km/h 83 % 0 mm
01:31 13.7 °C 10.9 °C 1007.3 hPa South 2.9 km/h 7.4 km/h 83 % 0 mm
01:34 13.7 °C 11 °C 1007.3 hPa South 2.6 km/h 3.7 km/h 84 % 0 mm
01:38 13.5 °C 10.8 °C 1007.3 hPa South 3.9 km/h 11.3 km/h 84 % 0 mm
01:43 13.3 °C 10.9 °C 1007.3 hPa South 6.8 km/h 9.3 km/h 85 % 0 mm
01:44 13.3 °C 10.9 °C 1007.3 hPa South 7.2 km/h 11.1 km/h 85 % 0 mm
01:49 13.2 °C 10.9 °C 1007.3 hPa South 9.2 km/h 13 km/h 86 % 0 mm
01:54 13 °C 10.7 °C 1007.3 hPa South 2.1 km/h 9.3 km/h 86 % 0 mm
01:59 12.9 °C 10.8 °C 1007.3 hPa South 3.2 km/h 11.3 km/h 87 % 0 mm
02:02 12.8 °C 10.7 °C 1007.3 hPa South 5.1 km/h 11.1 km/h 87 % 0 mm
02:05 12.8 °C 10.7 °C 1007.3 hPa South 5.8 km/h 11.1 km/h 87 % 0 mm
02:07 12.8 °C 10.7 °C 1007.3 hPa South 7.4 km/h 11.1 km/h 87 % 0 mm
02:12 12.7 °C 10.8 °C 1007.3 hPa South 4 km/h 8 km/h 88 % 0 mm
02:13 12.7 °C 10.8 °C 1007.3 hPa South 3.2 km/h 8 km/h 88 % 0 mm
02:18 12.7 °C 10.7 °C 1007.3 hPa South 4.7 km/h 7.4 km/h 88 % 0 mm
02:21 12.6 °C 10.7 °C 1007.3 hPa North 5.1 km/h 7.4 km/h 88 % 0 mm
02:23 12.6 °C 10.7 °C 1007.3 hPa North 3.2 km/h 5.6 km/h 88 % 0 mm
02:25 12.6 °C 10.6 °C 1007 hPa North 2.6 km/h 5.6 km/h 88 % 0 mm
02:29 12.5 °C 10.6 °C 1007 hPa North 3.2 km/h 5.6 km/h 88 % 0 mm
02:32 12.4 °C 10.4 °C 1007 hPa South 4 km/h 5.6 km/h 88 % 0 mm
02:34 12.3 °C 10.6 °C 1007 hPa South 3.1 km/h 8 km/h 89 % 0 mm
02:35 12.3 °C 10.6 °C 1007 hPa North 6.9 km/h 9.3 km/h 89 % 0 mm
02:40 12.3 °C 10.5 °C 1007 hPa North 5 km/h 9.3 km/h 89 % 0 mm
02:41 12.3 °C 10.5 °C 1007 hPa North 6.4 km/h 7.4 km/h 89 % 0 mm
02:46 12.2 °C 10.6 °C 1007 hPa North 3.7 km/h 5.6 km/h 90 % 0 mm
02:47 12.2 °C 10.6 °C 1007 hPa South 5.6 km/h 7.4 km/h 90 % 0 mm
02:52 12.1 °C 10.5 °C 1006.7 hPa North 3.1 km/h 9.3 km/h 90 % 0 mm
02:53 12.1 °C 10.4 °C 1007 hPa South 3.2 km/h 9.7 km/h 90 % 0 mm
02:58 12 °C 10.4 °C 1006.7 hPa North 4.8 km/h 9.3 km/h 90 % 0 mm
03:00 12 °C 10.4 °C 1006.7 hPa North 4.2 km/h 6.4 km/h 90 % 0 mm
03:04 11.9 °C 10.3 °C 1006.7 hPa South 5.1 km/h 9.3 km/h 90 % 0 mm
03:09 11.8 °C 10.4 °C 1006.7 hPa South 4.3 km/h 7.4 km/h 91 % 0 mm
03:10 11.8 °C 10.4 °C 1007 hPa North 3.9 km/h 5.6 km/h 91 % 0 mm
03:15 11.7 °C 10.3 °C 1006.7 hPa North 6.8 km/h 7.4 km/h 91 % 0 mm
03:16 11.7 °C 10.3 °C 1006.7 hPa South 5.5 km/h 7.4 km/h 91 % 0 mm
03:21 11.7 °C 10.2 °C 1006.7 hPa North 5.5 km/h 9.7 km/h 91 % 0 mm
03:26 11.7 °C 10.2 °C 1006.7 hPa South 1.9 km/h 7.4 km/h 91 % 0 mm
03:31 11.7 °C 10.4 °C 1006.7 hPa North 6.1 km/h 8 km/h 92 % 0 mm
03:32 11.7 °C 10.4 °C 1006.7 hPa South 7.2 km/h 11.3 km/h 92 % 0 mm
03:36 11.7 °C 10.4 °C 1006.7 hPa North 6.1 km/h 14.8 km/h 92 % 0 mm
03:38 11.7 °C 10.4 °C 1006.3 hPa South 8.5 km/h 11.1 km/h 92 % 0 mm
03:43 11.7 °C 10.4 °C 1006.3 hPa South 5.3 km/h 6.4 km/h 92 % 0 mm
03:48 11.6 °C 10.3 °C 1006.3 hPa South 5.6 km/h 7.4 km/h 92 % 0 mm
03:49 11.6 °C 10.3 °C 1006.3 hPa South 6.3 km/h 9.3 km/h 92 % 0 mm
03:53 11.6 °C 10.3 °C 1006.3 hPa SSE 6 km/h 9.3 km/h 92 % 0 mm
03:56 11.6 °C 10.3 °C 1006.3 hPa North 5.1 km/h 7.4 km/h 92 % 0 mm
03:59 11.6 °C 10.3 °C 1006.3 hPa North 2.4 km/h 4.8 km/h 92 % 0 mm
04:02 11.7 °C 10.6 °C 1006.3 hPa SSE 7.6 km/h 11.1 km/h 93 % 0 mm
04:07 11.8 °C 10.6 °C 1006.3 hPa South 2.7 km/h 11.1 km/h 92 % 0 mm
04:08 11.8 °C 10.6 °C 1006.3 hPa South 6.4 km/h 9.7 km/h 92 % 0 mm
04:13 11.8 °C 10.6 °C 1006.3 hPa South 1 km/h 1.9 km/h 92 % 0 mm
04:15 11.8 °C 10.6 °C 1006.3 hPa North 3.4 km/h 7.4 km/h 92 % 0 mm
04:16 11.8 °C 10.5 °C 1006.3 hPa South 1.9 km/h 3.7 km/h 92 % 0 mm
04:21 11.7 °C 10.4 °C 1006.3 hPa South 5.1 km/h 6.4 km/h 92 % 0 mm
04:26 11.7 °C 10.4 °C 1006.3 hPa South 2.9 km/h 5.6 km/h 92 % 0 mm
04:28 11.6 °C 10.3 °C 1006.3 hPa SSE 1.9 km/h 3.7 km/h 92 % 0 mm
04:33 11.6 °C 10.3 °C 1006.3 hPa North 4.8 km/h 6.4 km/h 92 % 0 mm
04:35 11.6 °C 10.3 °C 1006.3 hPa North 5.5 km/h 7.4 km/h 92 % 0 mm
04:40 11.5 °C 10.2 °C 1006.3 hPa Calm   1.9 km/h 92 % 0 mm
04:41 11.5 °C 10.2 °C 1006.3 hPa South 2.7 km/h 5.6 km/h 92 % 0 mm
04:46 11.4 °C 10.3 °C 1006.3 hPa South 2.7 km/h 5.6 km/h 93 % 0 mm
04:50 11.3 °C 10.2 °C 1006 hPa North 0.8 km/h 5.6 km/h 93 % 0 mm
04:55 11.3 °C 10.2 °C 1006 hPa North 3.5 km/h 5.6 km/h 93 % 0 mm
05:00 11.3 °C 10.2 °C 1006 hPa South 0.6 km/h 1.9 km/h 93 % 0 mm
05:05 11.2 °C 10.1 °C 1006 hPa South 1.6 km/h 3.7 km/h 93 % 0 mm
05:06 11.2 °C 10.1 °C 1006 hPa South 1.4 km/h 3.7 km/h 93 % 0 mm
05:07 11.2 °C 10.1 °C 1006 hPa North 0.3 km/h 1.9 km/h 93 % 0 mm
05:12 11.1 °C 10 °C 1006 hPa South 0.5 km/h 3.7 km/h 93 % 0 mm
05:17 11.1 °C 10 °C 1006 hPa North 0.5 km/h 3.7 km/h 93 % 0 mm
05:18 11.1 °C 9.9 °C 1006 hPa North 1.4 km/h 3.7 km/h 93 % 0 mm
05:19 11.1 °C 9.9 °C 1006 hPa South 0.2 km/h 1.9 km/h 93 % 0 mm
05:24 11 °C 9.9 °C 1006 hPa South 0.8 km/h 1.9 km/h 93 % 0 mm
05:25 11 °C 9.9 °C 1006.3 hPa Calm   3.7 km/h 93 % 0 mm
05:27 10.9 °C 9.8 °C 1006.3 hPa Calm     93 % 0 mm
05:32 10.9 °C 9.8 °C 1006.3 hPa South 0.6 km/h   93 % 0 mm
05:33 10.9 °C 9.8 °C 1006.3 hPa North 0.3 km/h 1.9 km/h 93 % 0 mm
05:38 10.8 °C 9.7 °C 1006.3 hPa Calm     93 % 0 mm
05:39 10.8 °C 9.7 °C 1006.3 hPa Calm     93 % 0 mm
05:44 10.7 °C 9.6 °C 1006.3 hPa South 4.2 km/h 6.4 km/h 93 % 0 mm
05:46 10.7 °C 9.6 °C 1006.3 hPa South 3.4 km/h 6.4 km/h 93 % 0 mm
05:51 10.6 °C 9.5 °C 1006.3 hPa North 3.7 km/h 5.6 km/h 93 % 0 mm
05:52 10.6 °C 9.5 °C 1006.3 hPa South 1.4 km/h 5.6 km/h 93 % 0 mm
05:57 10.6 °C 9.5 °C 1006.3 hPa North 2.3 km/h 3.7 km/h 93 % 0 mm
05:58 10.6 °C 9.5 °C 1006.7 hPa South 1.6 km/h 5.6 km/h 93 % 0 mm
05:59 10.7 °C 9.6 °C 1006.7 hPa South 0.8 km/h 3.7 km/h 93 % 0 mm
06:04 10.6 °C 9.5 °C 1006.3 hPa Calm     93 % 0 mm
06:06 10.6 °C 9.5 °C 1006.3 hPa Calm     93 % 0 mm
06:09 10.6 °C 9.4 °C 1006.3 hPa Calm     93 % 0 mm
06:12 10.4 °C 9.3 °C 1006.3 hPa Calm     93 % 0 mm
06:17 10.3 °C 9.3 °C 1006.3 hPa Calm     93 % 0 mm
06:19 10.3 °C 9.2 °C 1006.3 hPa Calm     93 % 0 mm
06:22 10.2 °C 9.2 °C 1006.3 hPa Calm     93 % 0 mm
06:27 10.1 °C 9 °C 1006.3 hPa Calm     93 % 0 mm
06:32 10 °C 8.9 °C 1006.3 hPa Calm     93 % 0 mm
06:34 9.9 °C 8.9 °C 1006.7 hPa Calm     93 % 0 mm
06:39 9.9 °C 9 °C 1006.7 hPa Calm     94 % 0 mm
06:40 10 °C 9.1 °C 1006.7 hPa South 1.3 km/h 1.9 km/h 94 % 0 mm
06:45 10.1 °C 9.2 °C 1006.7 hPa North 3.9 km/h 6.4 km/h 94 % 0 mm
06:47 10.2 °C 9.3 °C 1006.7 hPa South 3.2 km/h 5.6 km/h 94 % 0 mm
06:50 10.3 °C 9.3 °C 1006.7 hPa South 1 km/h 3.7 km/h 94 % 0 mm
06:52 10.3 °C 9.4 °C 1006.7 hPa North 2.9 km/h 5.6 km/h 94 % 0 mm
06:53 10.4 °C 9.4 °C 1007 hPa South 3.5 km/h 5.6 km/h 94 % 0 mm
06:58 10.6 °C 9.8 °C 1007 hPa South 2.9 km/h 5.6 km/h 95 % 0 mm
06:59 10.7 °C 9.9 °C 1007 hPa South 1.6 km/h 3.7 km/h 95 % 0 mm
07:04 10.9 °C 10.1 °C 1007 hPa South 4 km/h 5.6 km/h 95 % 0 mm
07:05 11 °C 10.2 °C 1007 hPa North 3.1 km/h 5.6 km/h 95 % 0 mm
07:07 11.1 °C 10.3 °C 1007 hPa South 2.6 km/h 5.6 km/h 95 % 0 mm
07:11 11.3 °C 10.5 °C 1007 hPa North 3.9 km/h 5.6 km/h 95 % 0 mm
07:13 11.4 °C 10.7 °C 1007 hPa South 2.9 km/h 5.6 km/h 95 % 0 mm
07:17 11.6 °C 10.8 °C 1007 hPa Calm   1.9 km/h 95 % 0 mm
07:18 11.6 °C 10.8 °C 1007 hPa South 3.1 km/h 6.4 km/h 95 % 0 mm
07:23 11.9 °C 11.1 °C 1007 hPa Calm   1.6 km/h 95 % 0 mm
07:28 12.4 °C 11.6 °C 1007 hPa South 1.9 km/h 3.7 km/h 95 % 0 mm
07:29 12.4 °C 11.6 °C 1007 hPa South 1.9 km/h 3.7 km/h 95 % 0 mm
07:30 12.4 °C 11.7 °C 1007 hPa South 0.5 km/h 3.7 km/h 95 % 0 mm
07:35 12.8 °C 11.9 °C 1007 hPa South 1.8 km/h 5.6 km/h 94 % 0 mm
07:39 12.9 °C 11.8 °C 1007 hPa South 0.3 km/h 1.9 km/h 93 % 0 mm
07:44 12.9 °C 11.6 °C 1007 hPa Calm     92 % 0 mm
07:49 13.1 °C 11.9 °C 1007.3 hPa South 0.3 km/h 1.9 km/h 93 % 0 mm
07:50 13.1 °C 12 °C 1007.3 hPa South 0.6 km/h 1.9 km/h 93 % 0 mm
07:55 13.3 °C 12.1 °C 1007.3 hPa South 4.3 km/h 7.4 km/h 92 % 0 mm
07:58 13.3 °C 11.7 °C 1007.3 hPa South 10.5 km/h 13 km/h 90 % 0 mm
08:01 13.3 °C 11.7 °C 1007.3 hPa South 7.6 km/h 9.7 km/h 90 % 0 mm
08:04 13.3 °C 11.7 °C 1007.3 hPa South 7.6 km/h 9.3 km/h 90 % 0 mm
08:09 13.5 °C 11.9 °C 1007.3 hPa South 8.9 km/h 8.9 km/h 90 % 0 mm
08:10 13.5 °C 11.7 °C 1007.3 hPa South 10.1 km/h 16.7 km/h 89 % 0 mm
08:12 13.6 °C 11.6 °C 1007.7 hPa South 7.6 km/h 13 km/h 88 % 0 mm
08:17 13.7 °C 11.6 °C 1007.7 hPa SSW 7.7 km/h 14.8 km/h 87 % 0 mm
08:22 13.8 °C 11.6 °C 1007.7 hPa North 7.2 km/h 11.1 km/h 86 % 0 mm
08:27 13.9 °C 11.4 °C 1007.7 hPa SW 9.7 km/h 16.7 km/h 85 % 0 mm
08:32 13.9 °C 11.3 °C 1007.7 hPa SW 9.7 km/h 11.1 km/h 84 % 0 mm
08:34 13.9 °C 11.1 °C 1007.7 hPa North 7.2 km/h 13 km/h 83 % 0 mm
08:39 14 °C 11.2 °C 1007.7 hPa SW 9.7 km/h 11.3 km/h 83 % 0 mm
08:44 14.1 °C 11.3 °C 1007.7 hPa SW 14.8 km/h 14.8 km/h 83 % 0 mm
08:49 14.2 °C 10.9 °C 1007.7 hPa North 12.1 km/h 16.7 km/h 81 % 0 mm
08:54 14.3 °C 11.1 °C 1007.7 hPa SW 9.5 km/h 13 km/h 81 % 0 mm
08:55 14.3 °C 11.1 °C 1008 hPa SW 8.5 km/h 11.1 km/h 81 % 0 mm
08:59 14.4 °C 11.1 °C 1007.7 hPa SW 9.5 km/h 13 km/h 80 % 0 mm
09:00 14.4 °C 11.1 °C 1007.7 hPa SW 7.7 km/h 13 km/h 80 % 0 mm
09:05 14.8 °C 11 °C 1007.7 hPa WSW 11.3 km/h 16.7 km/h 78 % 0 mm
09:06 14.8 °C 11 °C 1008 hPa WSW 11.1 km/h 16.7 km/h 78 % 0 mm
09:07 14.8 °C 10.8 °C 1008 hPa WSW 13.8 km/h 16.7 km/h 77 % 0 mm
09:12 14.9 °C 10.7 °C 1008 hPa SW 12.1 km/h 16.7 km/h 76 % 0 mm
09:13 14.8 °C 10.4 °C 1008 hPa SW 11.9 km/h 16.7 km/h 75 % 0 mm
09:18 14.9 °C 10.3 °C 1008 hPa WSW 12.4 km/h 16.7 km/h 74 % 0 mm
09:20 14.9 °C 10.3 °C 1008 hPa WSW 14.8 km/h 16.1 km/h 74 % 0 mm
09:24 15 °C 10.4 °C 1008 hPa WSW 11.1 km/h 16.7 km/h 74 % 0 mm
09:26 15.1 °C 10.3 °C 1008 hPa WSW 11.1 km/h 18.5 km/h 73 % 0 mm
09:31 15.6 °C 10.2 °C 1008 hPa WSW 7.2 km/h 13 km/h 70 % 0 mm
09:32 15.7 °C 10.4 °C 1008 hPa North 4 km/h 9.3 km/h 71 % 0 mm
09:37 15.6 °C 9.5 °C 1008 hPa SW 16.4 km/h 20.4 km/h 67 % 0 mm
09:42 15.4 °C 9.5 °C 1008 hPa SSW 10.5 km/h 16.7 km/h 68 % 0 mm
09:45 15.4 °C 9.7 °C 1008 hPa North 9 km/h 14.8 km/h 69 % 0 mm
09:46 15.4 °C 9.6 °C 1008 hPa SW 6.4 km/h 13 km/h 68 % 0 mm
09:50 15.6 °C 9.1 °C 1008 hPa SW 7.9 km/h 11.1 km/h 65 % 0 mm
09:55 15.6 °C 8.6 °C 1008 hPa North 13.4 km/h 16.7 km/h 63 % 0 mm
10:00 15.8 °C 9 °C 1008 hPa WSW 6.1 km/h 14.5 km/h 64 % 0 mm
10:01 15.8 °C 8.7 °C 1008 hPa SW 11.9 km/h 16.7 km/h 63 % 0 mm
10:06 15.7 °C 8.4 °C 1008 hPa WSW 13.7 km/h 16.7 km/h 62 % 0 mm
10:08 15.8 °C 8.5 °C 1008 hPa West 12.2 km/h 18.5 km/h 62 % 0 mm
10:13 15.9 °C 8.6 °C 1008 hPa WSW 12.9 km/h 16.7 km/h 62 % 0 mm
10:18 15.9 °C 8.4 °C 1008 hPa WSW 13 km/h 24.1 km/h 61 % 0 mm
10:20 15.9 °C 8.4 °C 1008 hPa WSW 12.4 km/h 16.7 km/h 61 % 0 mm
10:25 16.1 °C 8.6 °C 1008 hPa North 13 km/h 18.5 km/h 61 % 0 mm
10:26 16.2 °C 8.6 °C 1008 hPa West 12.1 km/h 16.7 km/h 61 % 0 mm
10:31 16.3 °C 8.3 °C 1008 hPa West 10.6 km/h 16.1 km/h 59 % 0 mm
10:32 16.3 °C 8.3 °C 1008 hPa West 9.7 km/h 16.7 km/h 59 % 0 mm
10:33 16.4 °C 8.3 °C 1008 hPa West 11.4 km/h 14.8 km/h 59 % 0 mm
10:38 16.5 °C 8.2 °C 1008.4 hPa SW 10.9 km/h 18.5 km/h 58 % 0 mm
10:39 16.4 °C 8.2 °C 1008.4 hPa North 14.5 km/h 20.4 km/h 58 % 0 mm
10:43 16.2 °C 7.7 °C 1008.4 hPa SSW 9.3 km/h 18.5 km/h 57 % 0 mm
10:48 16.5 °C 8.2 °C 1008.4 hPa SW 11.3 km/h 14.8 km/h 58 % 0 mm
10:52 16.7 °C 8.3 °C 1008.4 hPa West 7.6 km/h 11.1 km/h 58 % 0 mm
10:57 17 °C 8.2 °C 1008.4 hPa WSW 9 km/h 12.9 km/h 56 % 0 mm
10:58 17.1 °C 7.9 °C 1008.4 hPa North 14.3 km/h 18.5 km/h 55 % 0 mm
11:03 17.1 °C 7.9 °C 1008.4 hPa SW 12.1 km/h 18.5 km/h 55 % 0 mm
11:08 16.9 °C 8.3 °C 1008.7 hPa SW 15.1 km/h 24.1 km/h 57 % 0 mm
11:09 16.7 °C 8.2 °C 1008.7 hPa North 18.2 km/h 20.4 km/h 57 % 0 mm
11:13 16.3 °C 8.3 °C 1008.7 hPa SSW 18.2 km/h 22.5 km/h 59 % 0 mm
11:15 16.2 °C 8.4 °C 1008.7 hPa SSW 15.6 km/h 27.8 km/h 60 % 0 mm
11:19 16.1 °C 8.3 °C 1008.7 hPa SW 16.1 km/h 27.8 km/h 60 % 0 mm
11:21 16.1 °C 8.3 °C 1008.7 hPa SW 17.1 km/h 18.5 km/h 60 % 0 mm
11:24 16.2 °C 8.2 °C 1008.7 hPa SSW 13.2 km/h 18.5 km/h 59 % 0 mm
11:29 16.3 °C 8.1 °C 1008.7 hPa SSW 10.8 km/h 20.4 km/h 58 % 0 mm
11:30 16.3 °C 8.1 °C 1008.7 hPa SSW 7.6 km/h 18.5 km/h 58 % 0 mm
11:34 16.3 °C 8.1 °C 1008.7 hPa WSW 13.4 km/h 18.5 km/h 58 % 0 mm
11:38 16.5 °C 7.9 °C 1008.7 hPa WSW 2.7 km/h 14.8 km/h 57 % 0 mm
11:43 17.2 °C 7.8 °C 1008.4 hPa WSW 4.5 km/h 5.6 km/h 54 % 0 mm
11:45 17.5 °C 8.1 °C 1008.4 hPa WSW 4.8 km/h 5.6 km/h 54 % 0 mm
11:50 17.8 °C 8.1 °C 1008.4 hPa North 15.4 km/h 22.2 km/h 53 % 0 mm
11:52 17.7 °C 8 °C 1008.4 hPa SW 4.3 km/h 5.6 km/h 53 % 0 mm
11:54 17.8 °C 8.3 °C 1008.4 hPa SSW 13 km/h 24.1 km/h 54 % 0 mm
11:58 17.6 °C 7.9 °C 1008.4 hPa South 15.6 km/h 27.8 km/h 53 % 0 mm
12:01 17.7 °C 7.9 °C 1008.4 hPa North 11.6 km/h 18.5 km/h 53 % 0 mm
12:03 17.8 °C 8.4 °C 1008.4 hPa WSW 13.2 km/h 25.9 km/h 54 % 0 mm
12:08 17.9 °C 8.2 °C 1008.4 hPa SSW 10.1 km/h 20.4 km/h 53 % 0 mm
12:09 17.9 °C 8.5 °C 1008.4 hPa SSW 13.7 km/h 20.9 km/h 54 % 0 mm
12:10 18 °C 8.6 °C 1008.4 hPa North 15.4 km/h 18.5 km/h 54 % 0 mm
12:14 18.2 °C 8.2 °C 1008.4 hPa SW 12.9 km/h 20.4 km/h 52 % 0 mm
12:16 18.3 °C 8.2 °C 1008.4 hPa SW 14 km/h 18.5 km/h 52 % 0 mm
12:21 18.3 °C 8.2 °C 1008.4 hPa SW 18 km/h 27.8 km/h 52 % 0 mm
12:23 18.1 °C 8.4 °C 1008.4 hPa South 16.1 km/h 24.1 km/h 53 % 0 mm
12:26 18.1 °C 8.1 °C 1008.4 hPa North 14 km/h 19.3 km/h 52 % 0 mm
12:29 18 °C 8.6 °C 1008.4 hPa WSW 9.5 km/h 20.4 km/h 54 % 0 mm
12:31 18.1 °C 8.3 °C 1008.4 hPa WSW 13.7 km/h 18.5 km/h 53 % 0 mm
12:36 18.5 °C 9 °C 1008.4 hPa South 9.5 km/h 20.4 km/h 54 % 0 mm
12:37 18.7 °C 8.9 °C 1008.4 hPa South 15.6 km/h 22.2 km/h 53 % 0 mm
12:42 18.7 °C 8.9 °C 1008.4 hPa SSE 12.2 km/h 18.5 km/h 53 % 0 mm
12:43 18.6 °C 9.1 °C 1008.4 hPa South 20.6 km/h 27.8 km/h 54 % 0 mm
12:48 18.4 °C 9.2 °C 1008.4 hPa SSW 9.3 km/h 18.5 km/h 55 % 0 mm
12:54 18.3 °C 8.8 °C 1008.4 hPa SW 14.2 km/h 24.1 km/h 54 % 0 mm
12:55 18.3 °C 9.3 °C 1008.4 hPa SSW 15.1 km/h 20.9 km/h 56 % 0 mm
12:59 18.4 °C 9.4 °C 1008.4 hPa WSW 14.2 km/h 24.1 km/h 56 % 0 mm
13:02 18.2 °C 9.2 °C 1008.4 hPa SSW 12.6 km/h 20.4 km/h 56 % 0 mm
13:04 18.2 °C 9.2 °C 1008 hPa SSW 10.8 km/h 18.5 km/h 56 % 0 mm
13:09 18.7 °C 9.4 °C 1008 hPa WSW 11.9 km/h 22.2 km/h 55 % 0 mm
13:10 18.9 °C 9.4 °C 1008 hPa WSW 14.8 km/h 22.2 km/h 54 % 0 mm
13:13 18.8 °C 9 °C 1008 hPa WSW 17.2 km/h 25.9 km/h 53 % 0 mm
13:16 18.8 °C 9.6 °C 1008 hPa SSW 17.5 km/h 20.4 km/h 55 % 0 mm
13:19 18.6 °C 9.1 °C 1008 hPa SW 17.4 km/h 22.2 km/h 54 % 0 mm
13:21 18.4 °C 9.2 °C 1008 hPa SSW 11.1 km/h 16.7 km/h 55 % 0 mm
13:28 18.4 °C 9.2 °C 1008 hPa SW 13.2 km/h 18.5 km/h 55 % 0 mm
13:33 18.7 °C 9.8 °C 1008 hPa South 10.9 km/h 16.7 km/h 56 % 0 mm
13:34 18.7 °C 9.5 °C 1007.7 hPa North 13 km/h 18.5 km/h 55 % 0 mm
13:39 18.7 °C 9.5 °C 1007.7 hPa SSW 13.8 km/h 18.5 km/h 55 % 0 mm
13:43 18.7 °C 9.5 °C 1007.7 hPa SW 15.9 km/h 25.9 km/h 55 % 0 mm
13:45 18.7 °C 9.4 °C 1007.7 hPa SW 13.4 km/h 18.5 km/h 55 % 0 mm
13:50 19.1 °C 9.6 °C 1008 hPa SSW 11.4 km/h 18.5 km/h 54 % 0 mm
13:55 19.2 °C 9.4 °C 1008 hPa SW 16.9 km/h 22.2 km/h 53 % 0 mm
13:57 19 °C 9.5 °C 1008 hPa SSW 11.7 km/h 20.4 km/h 54 % 0 mm
14:01 19.2 °C 9.7 °C 1008 hPa SSW 15.8 km/h 18.5 km/h 54 % 0 mm
14:04 19.2 °C 9.7 °C 1008 hPa South 21.9 km/h 27.4 km/h 54 % 0 mm
14:09 19.2 °C 9.3 °C 1008 hPa SSW 12.2 km/h 22.2 km/h 53 % 0 mm
14:10 19.2 °C 9.3 °C 1008 hPa SSW 12.9 km/h 20.4 km/h 53 % 0 mm
14:18 19.6 °C 9.5 °C 1008 hPa SW 18.5 km/h 22.2 km/h 52 % 0 mm
14:21 19.4 °C 9.3 °C 1008 hPa SSW 6.9 km/h 14.8 km/h 52 % 0 mm
14:26 19.6 °C 9.2 °C 1008 hPa SSE 23 km/h 27.8 km/h 51 % 0 mm
14:29 19.6 °C 9.2 °C 1008 hPa SW 15.6 km/h 33.3 km/h 51 % 0 mm
14:34 19.7 °C 9.2 °C 1008 hPa SW 11.1 km/h 16.7 km/h 51 % 0 mm
14:39 20 °C 8.9 °C 1008 hPa SSW 17.7 km/h 25.9 km/h 49 % 0 mm
14:47 20.2 °C 8.8 °C 1008 hPa SSW 18.7 km/h 25.9 km/h 48 % 0 mm
14:52 20.1 °C 8.8 °C 1008 hPa SSW 20.3 km/h 25.9 km/h 48 % 0 mm
14:55 20.1 °C 9.3 °C 1007.7 hPa North 13.4 km/h 19.3 km/h 50 % 0 mm
15:00 20.2 °C 9.1 °C 1007.7 hPa SSW 14.2 km/h 17.7 km/h 49 % 0 mm
15:05 20.2 °C 9.1 °C 1007.7 hPa South 20.8 km/h 25.9 km/h 49 % 0 mm
15:06 20 °C 8.9 °C 1007.7 hPa SW 17.2 km/h 24.1 km/h 49 % 0 mm
15:11 19.9 °C 9.2 °C 1008 hPa SW 17.9 km/h 22.2 km/h 50 % 0 mm
15:14 20.1 °C 9 °C 1008 hPa North 19.3 km/h 24.1 km/h 49 % 0 mm
15:18 19.9 °C 8.9 °C 1008 hPa SW 21.1 km/h 27.8 km/h 49 % 0 mm
15:20 20.2 °C 9.4 °C 1008 hPa SSW 15.4 km/h 27.8 km/h 50 % 0 mm
15:24 20.5 °C 9.1 °C 1008 hPa SW 15.4 km/h 22.2 km/h 48 % 0 mm
15:26 20.4 °C 9.3 °C 1007.7 hPa SW 13.4 km/h 18.5 km/h 49 % 0 mm
15:29 20.6 °C 8.9 °C 1008 hPa SW 20.3 km/h 31.5 km/h 47 % 0 mm
15:34 20.7 °C 9.6 °C 1007.7 hPa South 9.7 km/h 18.5 km/h 49 % 0 mm
15:35 20.7 °C 9.6 °C 1007.7 hPa SSW 10.8 km/h 18.5 km/h 49 % 0 mm
15:36 20.8 °C 9.1 °C 1008 hPa SW 17.7 km/h 17.7 km/h 47 % 0 mm
15:41 20.1 °C 9.1 °C 1007.7 hPa SSW 7.7 km/h 25.7 km/h 49 % 0 mm
15:42 20.1 °C 8.7 °C 1007.7 hPa WSW 18 km/h 27.8 km/h 48 % 0 mm
15:47 20.4 °C 9 °C 1007.7 hPa SSW 15.4 km/h 20.4 km/h 48 % 0 mm
15:52 20.6 °C 8.8 °C 1007.7 hPa SSE 12.2 km/h 20.4 km/h 47 % 0 mm
15:57 20.4 °C 8.4 °C 1007.7 hPa SW 11.9 km/h 18.5 km/h 46 % 0 mm
15:58 20.4 °C 9.1 °C 1007.7 hPa South 11.9 km/h 16.7 km/h 48 % 0 mm
16:05 21 °C 8.9 °C 1007.7 hPa SSE 19.6 km/h 29.6 km/h 46 % 0 mm
16:10 20.7 °C 8.6 °C 1007.3 hPa WSW 6.1 km/h 14.8 km/h 46 % 0 mm
16:12 20.8 °C 9.1 °C 1007.7 hPa SSW 14.3 km/h 27.4 km/h 47 % 0 mm
16:16 20.7 °C 8.3 °C 1007.7 hPa WSW 11.6 km/h 18.5 km/h 45 % 0 mm
16:17 20.7 °C 8.3 °C 1007.7 hPa North 12.4 km/h 18.5 km/h 45 % 0 mm
16:22 20.8 °C 8.7 °C 1007.7 hPa SW 17.1 km/h 20.9 km/h 46 % 0 mm
16:23 20.8 °C 8.8 °C 1007.7 hPa South 16.7 km/h 20.4 km/h 46 % 0 mm
16:28 21 °C 8.6 °C 1007.7 hPa South 16.6 km/h 25.9 km/h 45 % 0 mm
16:30 20.8 °C 8.4 °C 1007.7 hPa SSE 15.8 km/h 25.9 km/h 45 % 0 mm
16:35 21.2 °C 8.1 °C 1007.7 hPa SSW 13.2 km/h 18.5 km/h 43 % 0 mm
16:40 21.4 °C 8.3 °C 1007.7 hPa South 13 km/h 20.4 km/h 43 % 0 mm
16:44 21.3 °C 8.2 °C 1007.7 hPa SW 16.9 km/h 25.7 km/h 43 % 0 mm
16:45 21.2 °C 8.1 °C 1007.7 hPa SSW 19.6 km/h 31.5 km/h 43 % 0 mm
16:50 21.1 °C 8.3 °C 1007.7 hPa South 10 km/h 14.8 km/h 44 % 0 mm
16:55 21.2 °C 7.7 °C 1007.7 hPa South 22 km/h 29.6 km/h 42 % 0 mm
17:00 20.9 °C 7.9 °C 1007.7 hPa SSW 16.3 km/h 31.5 km/h 43 % 0 mm
17:02 21.1 °C 8 °C 1007.7 hPa North 18.8 km/h 25.9 km/h 43 % 0 mm
17:06 21.3 °C 7.9 °C 1007.7 hPa North 18.7 km/h 24.1 km/h 42 % 0 mm
17:07 21.4 °C 8.3 °C 1007.7 hPa SSW 15.6 km/h 22.2 km/h 43 % 0 mm
17:12 21.4 °C 7.9 °C 1007.7 hPa SW 23.2 km/h 31.5 km/h 42 % 0 mm
17:13 21.3 °C 8.2 °C 1008 hPa SW 20.9 km/h 29.6 km/h 43 % 0 mm
17:18 21.3 °C 8.2 °C 1008 hPa SW 17.9 km/h 24.1 km/h 43 % 0 mm
17:19 21.3 °C 8.2 °C 1008 hPa SSW 20.1 km/h 24.1 km/h 43 % 0 mm
17:20 21.3 °C 8.2 °C 1008 hPa SW 20.4 km/h 22.2 km/h 43 % 0 mm
17:25 21.3 °C 7.8 °C 1008 hPa SW 13.7 km/h 18.5 km/h 42 % 0 mm
17:26 21.3 °C 7.8 °C 1008 hPa SSW 11.6 km/h 18.5 km/h 42 % 0 mm
17:31 21.4 °C 7.9 °C 1008 hPa WSW 18.7 km/h 27.8 km/h 42 % 0 mm
17:32 21.4 °C 7.9 °C 1008 hPa WSW 16.9 km/h 22.2 km/h 42 % 0 mm
17:36 21.4 °C 8.3 °C 1008 hPa SSW 18.3 km/h 29.6 km/h 43 % 0 mm
17:41 21.1 °C 8.3 °C 1008 hPa SSW 25.7 km/h 33.3 km/h 44 % 0 mm
17:46 20.8 °C 8.1 °C 1008 hPa SW 21.7 km/h 24.1 km/h 44 % 0 mm
17:49 20.7 °C 8 °C 1008 hPa SW 13.8 km/h 18.5 km/h 44 % 0 mm
17:51 20.9 °C 8.5 °C 1008 hPa SW 14 km/h 20.4 km/h 45 % 0 mm
17:56 20.8 °C 8.4 °C 1008 hPa North 18.7 km/h 24.1 km/h 45 % 0 mm
18:01 20.3 °C 8.6 °C 1008 hPa North 15.1 km/h 20.4 km/h 47 % 0 mm
18:07 20.4 °C 8.7 °C 1008 hPa South 15.4 km/h 25.9 km/h 47 % 0 mm
18:12 20.5 °C 8.5 °C 1008.4 hPa SSW 10.9 km/h 24.1 km/h 46 % 0 mm
18:13 20.5 °C 8.5 °C 1008 hPa SSW 12.9 km/h 22.2 km/h 46 % 0 mm
18:18 20.3 °C 9.3 °C 1008 hPa SSW 18.8 km/h 30.6 km/h 49 % 0 mm
18:19 20.2 °C 9.2 °C 1008.4 hPa South 20.6 km/h 31.5 km/h 49 % 0 mm
18:24 19.7 °C 9.2 °C 1008.4 hPa SSW 18.7 km/h 33.3 km/h 51 % 0 mm
18:27 19.8 °C 9.3 °C 1008.4 hPa South 20 km/h 31.5 km/h 51 % 0 mm
18:29 19.8 °C 9.7 °C 1008.4 hPa SSW 20.9 km/h 33.3 km/h 52 % 0 mm
18:34 19.4 °C 9.6 °C 1008.7 hPa South 24.1 km/h 33.8 km/h 53 % 0 mm
18:39 19.1 °C 9.6 °C 1008.7 hPa SSW 14.8 km/h 25.9 km/h 54 % 0 mm
18:44 18.9 °C 9.9 °C 1008.7 hPa South 16.1 km/h 27.8 km/h 56 % 0 mm
18:45 19.1 °C 10.1 °C 1008.7 hPa SSW 13.5 km/h 19.3 km/h 56 % 0 mm
18:46 19.1 °C 10.1 °C 1008.7 hPa SSW 13.4 km/h 20.4 km/h 56 % 0 mm
18:51 19.6 °C 10.1 °C 1008.7 hPa South 18.2 km/h 25.9 km/h 54 % 0 mm
18:53 19.6 °C 9.7 °C 1009 hPa SSW 21.2 km/h 31.5 km/h 53 % 0 mm
18:57 19.3 °C 9.4 °C 1009 hPa SSW 16.9 km/h 20.4 km/h 53 % 0 mm
19:04 18.4 °C 10 °C 1009 hPa SSW 10.9 km/h 20.4 km/h 58 % 0 mm
19:08 18.2 °C 9.8 °C 1009.4 hPa SSE 17.4 km/h 24.1 km/h 58 % 0 mm
19:13 18.1 °C 9.9 °C 1009 hPa SSW 18.2 km/h 24.1 km/h 59 % 0 mm
19:18 17.9 °C 10.1 °C 1009.4 hPa South 19.5 km/h 29.6 km/h 60 % 0 mm
19:23 17.9 °C 10 °C 1009.4 hPa SSW 14.3 km/h 19.3 km/h 60 % 0 mm
19:25 17.9 °C 10.1 °C 1009.4 hPa South 10.5 km/h 18.5 km/h 60 % 0 mm
19:30 18.2 °C 9.8 °C 1009.4 hPa South 14.5 km/h 24.1 km/h 58 % 0 mm
19:31 18.3 °C 9.9 °C 1009.4 hPa SSW 11.4 km/h 18.5 km/h 58 % 0 mm
19:36 18.6 °C 9.1 °C 1009.7 hPa SSW 18.7 km/h 25.9 km/h 54 % 0 mm
19:37 18.6 °C 9.3 °C 1009.7 hPa SW 14.5 km/h 22.2 km/h 55 % 0 mm
19:40 18.4 °C 9.4 °C 1009.7 hPa South 17.2 km/h 24.1 km/h 56 % 0 mm
19:43 18.2 °C 9.5 °C 1009.7 hPa SSW 20 km/h 24.1 km/h 57 % 0 mm
19:48 17.8 °C 9.4 °C 1010 hPa SSW 13.2 km/h 25.9 km/h 58 % 0 mm
19:49 17.7 °C 9.3 °C 1010 hPa North 10 km/h 14.8 km/h 58 % 0 mm
19:51 17.6 °C 9.7 °C 1009.7 hPa South 16.4 km/h 25.9 km/h 60 % 0 mm
19:56 17.4 °C 10.1 °C 1010 hPa SSE 8.5 km/h 14.8 km/h 62 % 0 mm
20:01 17.4 °C 10.1 °C 1010 hPa SSE 14.8 km/h 18.5 km/h 62 % 0 mm
20:03 17.4 °C 10.1 °C 1010 hPa South 12.7 km/h 20.4 km/h 62 % 0 mm
20:09 17.3 °C 10 °C 1010.4 hPa South 14.3 km/h 22.2 km/h 62 % 0 mm
20:14 17.2 °C 9.9 °C 1010.4 hPa SSE 17.5 km/h 29.6 km/h 62 % 0 mm
20:19 17.1 °C 9.9 °C 1010.4 hPa South 14.5 km/h 18.5 km/h 63 % 0 mm
20:21 17 °C 9.9 °C 1010.4 hPa South 12.6 km/h 18.5 km/h 63 % 0 mm
20:26 16.9 °C 9.8 °C 1010.4 hPa South 11.7 km/h 20.4 km/h 63 % 0 mm
20:31 16.8 °C 9.7 °C 1010.4 hPa SSW 18 km/h 27.8 km/h 63 % 0 mm
20:36 16.7 °C 9.4 °C 1010.4 hPa SSW 19.5 km/h 22.2 km/h 62 % 0 mm
20:37 16.7 °C 9.4 °C 1010.7 hPa South 18 km/h 29.6 km/h 62 % 0 mm
20:40 16.7 °C 9.4 °C 1010.7 hPa South 15.9 km/h 27.8 km/h 62 % 0 mm
20:45 16.6 °C 9.2 °C 1010.7 hPa South 17.2 km/h 22.2 km/h 62 % 0 mm
20:46 16.6 °C 9.2 °C 1010.7 hPa South 13.5 km/h 22.2 km/h 62 % 0 mm
20:47 16.6 °C 9.2 °C 1010.7 hPa South 14.5 km/h 24.1 km/h 62 % 0 mm
20:52 16.3 °C 9.3 °C 1010.7 hPa South 17.1 km/h 22.2 km/h 63 % 0 mm
20:54 16.3 °C 9.3 °C 1010.7 hPa SSE 13.4 km/h 29.6 km/h 63 % 0 mm
20:57 16.2 °C 9.3 °C 1010.7 hPa SSW 18 km/h 22.2 km/h 64 % 0 mm
21:04 15.8 °C 9.5 °C 1011.1 hPa South 14.3 km/h 22.2 km/h 66 % 0 mm
21:09 15.6 °C 9.4 °C 1011.1 hPa South 11.6 km/h 25.9 km/h 67 % 0 mm
21:10 15.6 °C 9.4 °C 1011.1 hPa South 7.4 km/h 14.8 km/h 67 % 0 mm
21:15 15.3 °C 9.4 °C 1011.1 hPa South 10.8 km/h 18.5 km/h 68 % 0 mm
21:22 14.9 °C 10.2 °C 1011.4 hPa SSW 15.6 km/h 22.2 km/h 73 % 0 mm
21:26 14.8 °C 9.8 °C 1011.4 hPa SSW 13.5 km/h 25.9 km/h 72 % 0 mm
21:32 14.6 °C 9.8 °C 1011.4 hPa SSW 16.3 km/h 18.5 km/h 73 % 0 mm
21:35 14.4 °C 9.9 °C 1011.7 hPa South 13.7 km/h 22.2 km/h 74 % 0 mm
21:37 14.4 °C 9.8 °C 1011.7 hPa South 13 km/h 18.5 km/h 74 % 0 mm
21:42 14.2 °C 9.8 °C 1011.7 hPa North 6.3 km/h 11.3 km/h 75 % 0 mm
21:43 14.2 °C 9.8 °C 1011.7 hPa North 12.7 km/h 12.7 km/h 75 % 0 mm
21:44 14.2 °C 9.8 °C 1011.7 hPa SSW 9.5 km/h 14.5 km/h 75 % 0 mm
21:49 13.9 °C 9.6 °C 1011.7 hPa SSW 10.1 km/h 16.7 km/h 75 % 0 mm
21:53 13.8 °C 9.7 °C 1011.7 hPa North 9.7 km/h 18.5 km/h 76 % 0 mm
21:54 13.8 °C 9.7 °C 1011.7 hPa SSW 6.4 km/h 11.3 km/h 76 % 0 mm
21:59 13.7 °C 9.6 °C 1012.1 hPa North 9.8 km/h 13 km/h 76 % 0 mm
22:00 13.7 °C 9.5 °C 1012.1 hPa South 10.6 km/h 19.3 km/h 76 % 0 mm
22:05 13.6 °C 9.4 °C 1012.1 hPa South 12.2 km/h 18.5 km/h 76 % 0 mm
22:10 13.4 °C 9.3 °C 1012.1 hPa North 11.9 km/h 16.7 km/h 76 % 0 mm
22:11 13.4 °C 9.3 °C 1012.1 hPa North 12.4 km/h 18.5 km/h 76 % 0 mm
22:16 13.4 °C 9.2 °C 1012.1 hPa South 10 km/h 16.7 km/h 76 % 0 mm
22:19 13.3 °C 9.2 °C 1012.1 hPa North 5.8 km/h 11.1 km/h 76 % 0 mm
22:24 13.2 °C 9.1 °C 1012.1 hPa South 8.9 km/h 8.9 km/h 76 % 0 mm
22:25 13.2 °C 9.1 °C 1012.4 hPa South 10.1 km/h 10.1 km/h 76 % 0 mm
22:26 13.2 °C 9.1 °C 1012.1 hPa South 6 km/h 9.3 km/h 76 % 0 mm
22:31 13.1 °C 9.2 °C 1012.4 hPa South 6.6 km/h 11.1 km/h 77 % 0 mm
22:37 13.1 °C 9.2 °C 1012.4 hPa South 10 km/h 14.8 km/h 77 % 0 mm
22:42 13.1 °C 9.3 °C 1012.4 hPa SSW 11.3 km/h 19.3 km/h 78 % 0 mm
22:47 13.2 °C 9.6 °C 1012.4 hPa SSE 10.3 km/h 20.4 km/h 79 % 0 mm
22:48 13.2 °C 9.6 °C 1012.4 hPa North 10 km/h 16.7 km/h 79 % 0 mm
22:51 13.2 °C 9.6 °C 1012.8 hPa North 11.1 km/h 20.4 km/h 79 % 0 mm
22:53 13.1 °C 9.6 °C 1012.8 hPa South 9.8 km/h 18.5 km/h 79 % 0 mm
22:56 13.1 °C 9.6 °C 1012.8 hPa South 10.1 km/h 18.5 km/h 79 % 0 mm
22:59 13.1 °C 9.5 °C 1012.8 hPa South 8.9 km/h 9.7 km/h 79 % 0 mm
23:02 13 °C 9.4 °C 1012.8 hPa South 8 km/h 14.8 km/h 79 % 0 mm
23:07 12.8 °C 9.4 °C 1012.8 hPa SSW 12.1 km/h 18.5 km/h 80 % 0 mm
23:08 12.8 °C 9.4 °C 1012.8 hPa SSW 11.1 km/h 18.5 km/h 80 % 0 mm
23:13 12.7 °C 9.6 °C 1012.8 hPa South 7.1 km/h 13 km/h 81 % 0 mm
23:14 12.7 °C 9.5 °C 1012.8 hPa South 7.2 km/h 11.3 km/h 81 % 0 mm
23:19 12.6 °C 9.4 °C 1012.8 hPa South 7.2 km/h 9.3 km/h 81 % 0 mm
23:22 12.6 °C 9.4 °C 1012.8 hPa South 7.2 km/h 13 km/h 81 % 0 mm
23:26 12.5 °C 9.5 °C 1012.8 hPa South 8.9 km/h 13 km/h 82 % 0 mm
23:29 12.5 °C 9.5 °C 1012.8 hPa North 9 km/h 14.8 km/h 82 % 0 mm
23:34 12.5 °C 9.5 °C 1012.4 hPa South 5.3 km/h 13 km/h 82 % 0 mm
23:35 12.5 °C 9.5 °C 1012.4 hPa South 6.3 km/h 11.1 km/h 82 % 0 mm
23:38 12.5 °C 9.5 °C 1012.8 hPa South 8.2 km/h 16.7 km/h 82 % 0 mm
23:41 12.6 °C 9.6 °C 1012.4 hPa South 7.9 km/h 13 km/h 82 % 0 mm
23:44 12.6 °C 9.6 °C 1012.4 hPa South 9.2 km/h 12.9 km/h 82 % 0 mm
23:49 12.7 °C 9.5 °C 1012.4 hPa South 6.1 km/h 9.7 km/h 81 % 0 mm
23:50 12.7 °C 9.5 °C 1012.4 hPa South 7.6 km/h 11.1 km/h 81 % 0 mm
23:55 12.7 °C 9.6 °C 1012.4 hPa South 9.2 km/h 13 km/h 81 % 0 mm
23:56 12.7 °C 9.6 °C 1012.4 hPa South 6.1 km/h 11.1 km/h 81 % 0 mm
Ararat Weather
Compliments of Weather Underground - 3.25 mb
Click here to send mail.


ABOUT

Live weather data from Ararat, Victoria, Australia, 3377
Data uploaded from Cumulus every 5 minutes to Weather Underground.
This site then downloads the raw data for formatting and display.
Metric and imperial data can be displayed. Graphs and historical data available.
Includes Sun and Moon times and rain image live from BOM.

Check out Ararat Weather on Facebook, Twitter and Google +

Help support ongoing costs by checking out the ads





Follow @AraratWeather